San Juan de Alicante, Spain
Current Conditions -  °F | °C
As of 2:30 PM on Thursday 30 Oct 2014 (Local Time) from LEAL Reporting Station
Few Clouds Few Clouds  
Wind Chill: 75°   Ceiling: Unl
Heat Index: 75°   Visibility: 6mi
Dew Point: 61°   Wind: 7mph
Humidity: 61%   Direction: 100°E
Pressure: 30.15"   Gusts: NA
Location:  38.4°N, 0.44°W
Report Text: LEAL 301330Z 10006KT 070V160 9999 FEW025 24/16 Q1021 NOSIG
Loading
Personal Weather Stations






























Interactive Weather Map
Tropical Storm Tracking
New forecast layout! Learn more

10-Day Weather Forecast

Advertisements
Track Severe Weather on mobile